WetterOnline ( http://www.wetteronline.de )

Wetter aktuell Schwäbische Alb

Aktuelles Wetter: Messstetten (900m)

6-stündlich | Neueste Meldungen
Ortszeit Temperatur Wetter
Do, 21.03. 1:00 0.4° C wolkenlos
Mi, 20.03. 19:00 0.6° C wolkenlos
Mi, 20.03. 13:00 5.6° C wolkenlos
Mi, 20.03. 7:00 -3.1° C wolkenlos
Mi, 20.03. 1:00 -2.9° C wolkenlos
Di, 19.03. 19:00 0.7° C wolkenlos
Di, 19.03. 13:00 3.7° C wolkig
Di, 19.03. 7:00 -2.3° C bewölkt
Ortszeit Temperatur Wetter
Do, 21.03. 5:00 0.3° C wolkig
Do, 21.03. 4:50 0.3° C wolkig
Do, 21.03. 4:40 0.2° C wolkig
Do, 21.03. 4:30 0.2° C leicht bewölkt
Do, 21.03. 4:20 0.2° C leicht bewölkt
Do, 21.03. 4:10 0.2° C leicht bewölkt
Do, 21.03. 4:00 0.1° C fast wolkenlos
Do, 21.03. 3:30 0.3° C fast wolkenlos
Do, 21.03. 3:00 0.4° C fast wolkenlos
Do, 21.03. 2:30 0.3° C wolkenlos
Do, 21.03. 2:00 0.4° C wolkenlos
Ortszeit Relative Feuchte Sichtweite
Do, 21.03. 1:00 61% 40 km
Mi, 20.03. 19:00 67% 45 km
Mi, 20.03. 13:00 44% 27 km
Mi, 20.03. 7:00 78% 27 km
Mi, 20.03. 1:00 78% 30 km
Di, 19.03. 19:00 67% 50 km
Di, 19.03. 13:00 67% 35 km
Di, 19.03. 7:00 92% 29 km
Ortszeit Relative Feuchte Sichtweite
Do, 21.03. 5:00 59% 40 km
Do, 21.03. 4:50 59% -
Do, 21.03. 4:40 60% -
Do, 21.03. 4:30 61% 35 km
Do, 21.03. 4:20 61% -
Do, 21.03. 4:10 61% -
Do, 21.03. 4:00 61% 35 km
Do, 21.03. 3:30 61% 35 km
Do, 21.03. 3:00 60% 35 km
Do, 21.03. 2:30 61% 35 km
Do, 21.03. 2:00 62% 35 km
Ortszeit Niederschlagsmenge Niederschlagsart
Do, 21.03. 1:00 0.0 l/m2 in 6 Std. -
Mi, 20.03. 19:00 0.0 l/m2 in 12 Std. -
Mi, 20.03. 13:00 0.0 l/m2 in 6 Std. -
Mi, 20.03. 7:00 0.0 l/m2 in 12 Std. -
Mi, 20.03. 1:00 0.0 l/m2 in 6 Std. -
Di, 19.03. 19:00 0.1 l/m2 in 12 Std. -
Di, 19.03. 13:00 0.1 l/m2 in 6 Std. Schnee, Niederschlag
Di, 19.03. 7:00 0.0 l/m2 in 12 Std. -
Ortszeit Niederschlagsmenge Niederschlagsart
Do, 21.03. 5:00 0.0 l/m2 in 1 Std. -
Do, 21.03. 4:50 keine Meldung -
Do, 21.03. 4:40 keine Meldung -
Do, 21.03. 4:30 0.0 l/m2 in 1 Std. -
Do, 21.03. 4:20 keine Meldung -
Do, 21.03. 4:10 keine Meldung -
Do, 21.03. 4:00 0.0 l/m2 in 1 Std. -
Do, 21.03. 3:30 0.0 l/m2 in 1 Std. -
Do, 21.03. 3:00 0.0 l/m2 in 1 Std. -
Do, 21.03. 2:30 0.0 l/m2 in 1 Std. -
Do, 21.03. 2:00 0.0 l/m2 in 1 Std. -
Ortszeit Stärke Spitze Richtung
km/h Bft. km/h Grad Sektor
Do, 21.03. 1:00 11 2 18 90° O
Mi, 20.03. 19:00 7 2 32 90° O
Mi, 20.03. 13:00 7 2 29 40° NO
Mi, 20.03. 7:00 6 1 9 90° O
Mi, 20.03. 1:00 4 1 11 90° O
Di, 19.03. 19:00 2 1 31 20° N
Di, 19.03. 13:00 11 2 19 310° NW
Di, 19.03. 7:00 0 0 7 - -
Ortszeit Stärke Spitze Richtung
km/h Bft. km/h Grad Sektor
Do, 21.03. 5:00 22 4 32 90° O
Do, 21.03. 4:50 22 4 - 90° O
Do, 21.03. 4:40 18 3 - 90° O
Do, 21.03. 4:30 22 4 29 80° O
Do, 21.03. 4:20 22 4 - 80° O
Do, 21.03. 4:10 17 3 - 90° O
Do, 21.03. 4:00 14 3 29 90° O
Do, 21.03. 3:30 17 3 28 100° O
Do, 21.03. 3:00 18 3 29 100° O
Do, 21.03. 2:30 13 3 20 100° O
Do, 21.03. 2:00 11 2 18 90° O
Ortszeit Untergrenze Bedeckung Gattung
total tief tief mittel hoch
Do, 21.03. 1:00 - 0/8 0/8 - - -
Mi, 20.03. 19:00 - 0/8 0/8 - - -
Mi, 20.03. 13:00 - 0/8 0/8 - - -
Mi, 20.03. 7:00 - 0/8 0/8 - - -
Mi, 20.03. 1:00 - 0/8 0/8 - - -
Di, 19.03. 19:00 - 0/8 0/8 - - -
Di, 19.03. 13:00 810 m 5/8 5/8 - - -
Di, 19.03. 7:00 1500 m 7/8 7/8 - - -
Ortszeit Bedeckungsgrad in Achtel und Wolkenuntergrenze
Do, 21.03. 5:00 5(7500m) 7(8100m) 7(8700m)
Do, 21.03. 4:50 5(7500m) 7(8100m) 7(8700m)
Do, 21.03. 4:40 8(7500m) 8(8100m) 8(9000m)
Do, 21.03. 4:30 5(7500m) 5(8700m) 6(9000m)
Do, 21.03. 4:20 5(7500m) 5(8700m) 6(9000m)
Do, 21.03. 4:10 2(7500m) 3(8700m) 4(9000m)
Do, 21.03. 4:00 2(10500m)
Do, 21.03. 3:30 1(10500m)
Do, 21.03. 3:00 1(9000m)
Do, 21.03. 2:30 keine Wolken
Do, 21.03. 2:00 keine Wolken
Ortszeit Stationsdruck (hPa) Tendenz (hPa in 3 Std.)
Do, 21.03. 1:00 927 - 0,6
Mi, 20.03. 19:00 927 + 0,8
Mi, 20.03. 13:00 927 + 0,4
Mi, 20.03. 7:00 925 + 0,9
Mi, 20.03. 1:00 925 + 0,7
Di, 19.03. 19:00 923 + 1,5
Di, 19.03. 13:00 921 + 0,7
Di, 19.03. 7:00 919 + 1,0
Ortszeit Stationsdruck (hPa) Tendenz (hPa in 3 Std.)
Do, 21.03. 5:00 926 - 1,0
Do, 21.03. 4:50 926 keine Meldung
Do, 21.03. 4:40 926 keine Meldung
Do, 21.03. 4:30 926 - 1,1
Do, 21.03. 4:20 926 keine Meldung
Do, 21.03. 4:10 926 keine Meldung
Do, 21.03. 4:00 926 - 1,0
Do, 21.03. 3:30 926 - 1,3
Do, 21.03. 3:00 926 - 1,3
Do, 21.03. 2:30 926 - 0,9
Do, 21.03. 2:00 927 - 0,6
Ortszeit Schneehöhe (cm)
Do, 21.03. 1:00 0
Mi, 20.03. 19:00 0
Mi, 20.03. 13:00 0
Mi, 20.03. 7:00 0
Mi, 20.03. 1:00 0
Di, 19.03. 19:00 0
Di, 19.03. 13:00 0
Di, 19.03. 7:00 0
Ortszeit Schneehöhe (cm)
Do, 21.03. 5:00 0
Do, 21.03. 4:50 0
Do, 21.03. 4:40 0
Do, 21.03. 4:30 0
Do, 21.03. 4:20 0
Do, 21.03. 4:10 0
Do, 21.03. 4:00 0
Do, 21.03. 3:30 0
Do, 21.03. 3:00 0
Do, 21.03. 2:30 0
Do, 21.03. 2:00 0
Link zu dieser Seite / Seite empfehlen

Das Wetter in ...